sensor_id;sensor_type;location;lat;lon;timestamp;pressure;altitude;pressure_sealevel;temperature;humidity
12624;BME280;6377;42.836;23.998;2024-02-16T09:19:11;96401.53;;;10.58;63.13
12624;BME280;6377;42.836;23.998;2024-02-16T09:21:39;96407.22;;;10.71;62.22
12624;BME280;6377;42.836;23.998;2024-02-16T09:24:06;96406.06;;;10.74;59.87
12624;BME280;6377;42.836;23.998;2024-02-16T09:26:36;96398.97;;;10.82;58.30
12624;BME280;6377;42.836;23.998;2024-02-16T09:29:03;96407.56;;;10.92;59.34
12624;BME280;6377;42.836;23.998;2024-02-16T09:31:30;96401.31;;;10.93;60.05
12624;BME280;6377;42.836;23.998;2024-02-16T09:33:57;96401.97;;;10.95;59.72
12624;BME280;6377;42.836;23.998;2024-02-16T09:36:26;96401.50;;;11.08;60.08
12624;BME280;6377;42.836;23.998;2024-02-16T09:38:53;96404.66;;;11.19;57.18
12624;BME280;6377;42.836;23.998;2024-02-16T09:41:20;96399.84;;;11.23;56.44
12624;BME280;6377;42.836;23.998;2024-02-16T09:43:47;96399.19;;;11.29;55.22
12624;BME280;6377;42.836;23.998;2024-02-16T09:46:15;96400.34;;;11.51;55.54
12624;BME280;6377;42.836;23.998;2024-02-16T09:48:46;96400.34;;;11.35;56.02
12624;BME280;6377;42.836;23.998;2024-02-16T09:51:18;96391.72;;;11.00;55.61
12624;BME280;6377;42.836;23.998;2024-02-16T09:53:50;96402.13;;;10.86;56.30
12624;BME280;6377;42.836;23.998;2024-02-16T09:56:19;96389.53;;;10.80;56.97
12624;BME280;6377;42.836;23.998;2024-02-16T09:58:47;96398.47;;;10.79;57.72
12624;BME280;6377;42.836;23.998;2024-02-16T10:01:18;96387.75;;;10.96;58.04
12624;BME280;6377;42.836;23.998;2024-02-16T10:03:46;96399.69;;;11.08;57.00
12624;BME280;6377;42.836;23.998;2024-02-16T10:06:13;96384.94;;;11.14;55.49
12624;BME280;6377;42.836;23.998;2024-02-16T10:08:49;96370.38;;;11.10;54.49
12624;BME280;6377;42.836;23.998;2024-02-16T10:11:17;96387.44;;;11.23;54.54
12624;BME280;6377;42.836;23.998;2024-02-16T10:18:56;96238.47;;;9.75;54.90
12624;BME280;6377;42.836;23.998;2024-02-16T10:21:24;96371.19;;;10.86;55.17
12624;BME280;6377;42.836;23.998;2024-02-16T10:24:00;96277.47;;;10.23;53.96
12624;BME280;6377;42.836;23.998;2024-02-16T10:26:28;96364.56;;;10.98;54.28
12624;BME280;6377;42.836;23.998;2024-02-16T10:28:56;96254.06;;;10.36;54.02
12624;BME280;6377;42.836;23.998;2024-02-16T10:31:24;96371.72;;;11.22;53.15
12624;BME280;6377;42.836;23.998;2024-02-16T10:33:57;96294.75;;;10.83;51.38
12624;BME280;6377;42.836;23.998;2024-02-16T10:36:25;96358.81;;;11.19;52.63
12624;BME280;6377;42.836;23.998;2024-02-16T10:38:54;96359.47;;;11.13;52.90
12624;BME280;6377;42.836;23.998;2024-02-16T10:41:28;96357.16;;;11.18;52.00
12624;BME280;6377;42.836;23.998;2024-02-16T10:43:55;96353.53;;;11.27;51.84
12624;BME280;6377;42.836;23.998;2024-02-16T10:46:23;96355.00;;;11.13;51.53
12624;BME280;6377;42.836;23.998;2024-02-16T10:48:51;96350.53;;;11.22;51.71
12624;BME280;6377;42.836;23.998;2024-02-16T10:51:21;96350.22;;;11.41;53.63
12624;BME280;6377;42.836;23.998;2024-02-16T10:53:52;96371.53;;;11.48;51.41
12624;BME280;6377;42.836;23.998;2024-02-16T10:56:32;96303.53;;;11.24;51.30
12624;BME280;6377;42.836;23.998;2024-02-16T10:59:01;96284.66;;;11.19;50.72
12624;BME280;6377;42.836;23.998;2024-02-16T11:01:32;96333.47;;;11.73;49.85
12624;BME280;6377;42.836;23.998;2024-02-16T11:04:03;96336.41;;;11.78;50.45
12624;BME280;6377;42.836;23.998;2024-02-16T11:06:45;96333.63;;;11.71;49.24
12624;BME280;6377;42.836;23.998;2024-02-16T11:09:23;96335.72;;;11.92;49.18
12624;BME280;6377;42.836;23.998;2024-02-16T11:11:54;96327.34;;;12.19;49.53
12624;BME280;6377;42.836;23.998;2024-02-16T11:14:21;96318.94;;;12.08;48.44
12624;BME280;6377;42.836;23.998;2024-02-16T11:16:53;96324.00;;;12.25;49.06
12624;BME280;6377;42.836;23.998;2024-02-16T11:19:22;96287.22;;;12.76;47.72
12624;BME280;6377;42.836;23.998;2024-02-16T11:21:56;96308.84;;;13.70;46.60
12624;BME280;6377;42.836;23.998;2024-02-16T11:24:31;96311.22;;;14.09;44.93
12624;BME280;6377;42.836;23.998;2024-02-16T11:27:01;96304.88;;;14.25;43.68
12624;BME280;6377;42.836;23.998;2024-02-16T11:29:31;96305.84;;;13.73;44.09
12624;BME280;6377;42.836;23.998;2024-02-16T11:32:00;96294.53;;;13.86;45.65
12624;BME280;6377;42.836;23.998;2024-02-16T11:34:28;96310.84;;;14.12;44.78
12624;BME280;6377;42.836;23.998;2024-02-16T11:36:56;96292.69;;;14.45;43.67
12624;BME280;6377;42.836;23.998;2024-02-16T11:39:23;96301.88;;;14.78;43.55
12624;BME280;6377;42.836;23.998;2024-02-16T11:42:00;96298.63;;;14.62;43.59
12624;BME280;6377;42.836;23.998;2024-02-16T11:44:29;96298.31;;;14.92;42.68
12624;BME280;6377;42.836;23.998;2024-02-16T11:46:57;96289.13;;;14.95;42.37
12624;BME280;6377;42.836;23.998;2024-02-16T11:49:24;96288.97;;;15.24;42.06
12624;BME280;6377;42.836;23.998;2024-02-16T11:51:51;96282.06;;;15.51;41.56
12624;BME280;6377;42.836;23.998;2024-02-16T11:54:19;96280.84;;;15.53;41.15
12624;BME280;6377;42.836;23.998;2024-02-16T11:56:47;96259.97;;;15.36;40.93
12624;BME280;6377;42.836;23.998;2024-02-16T11:59:19;96270.84;;;15.90;40.01
12624;BME280;6377;42.836;23.998;2024-02-16T12:01:50;96258.44;;;16.16;40.56
12624;BME280;6377;42.836;23.998;2024-02-16T12:04:24;96268.41;;;16.42;39.77
12624;BME280;6377;42.836;23.998;2024-02-16T12:06:52;96243.84;;;16.60;39.42
12624;BME280;6377;42.836;23.998;2024-02-16T12:09:20;96260.78;;;17.13;38.07
12624;BME280;6377;42.836;23.998;2024-02-16T12:11:48;96258.53;;;17.56;37.97
12624;BME280;6377;42.836;23.998;2024-02-16T12:14:18;96260.81;;;17.78;37.64
12624;BME280;6377;42.836;23.998;2024-02-16T12:16:48;96258.91;;;17.85;37.17
12624;BME280;6377;42.836;23.998;2024-02-16T12:19:15;96198.06;;;17.55;36.60
12624;BME280;6377;42.836;23.998;2024-02-16T12:21:43;96220.06;;;17.24;36.98
12624;BME280;6377;42.836;23.998;2024-02-16T12:24:10;96255.66;;;17.38;37.51
12624;BME280;6377;42.836;23.998;2024-02-16T12:26:37;96161.38;;;16.31;37.74
12624;BME280;6377;42.836;23.998;2024-02-16T12:29:06;96184.00;;;16.48;38.86
12624;BME280;6377;42.836;23.998;2024-02-16T12:31:35;96187.47;;;16.35;38.34
12624;BME280;6377;42.836;23.998;2024-02-16T12:34:03;96208.19;;;16.33;39.37
12624;BME280;6377;42.836;23.998;2024-02-16T12:36:32;96208.38;;;15.78;39.96
12624;BME280;6377;42.836;23.998;2024-02-16T12:38:59;96246.69;;;16.04;40.02
12624;BME280;6377;42.836;23.998;2024-02-16T12:41:28;96197.66;;;15.64;39.51
12624;BME280;6377;42.836;23.998;2024-02-16T12:43:55;96244.38;;;15.95;39.90
12624;BME280;6377;42.836;23.998;2024-02-16T12:46:22;96247.00;;;15.88;40.10
12624;BME280;6377;42.836;23.998;2024-02-16T12:48:51;96194.31;;;15.28;40.16
12624;BME280;6377;42.836;23.998;2024-02-16T12:51:19;96189.47;;;15.10;40.09
12624;BME280;6377;42.836;23.998;2024-02-16T12:53:46;96200.34;;;14.88;42.12
12624;BME280;6377;42.836;23.998;2024-02-16T12:56:13;96202.13;;;14.81;41.51
12624;BME280;6377;42.836;23.998;2024-02-16T12:58:40;96253.78;;;15.07;41.20
12624;BME280;6377;42.836;23.998;2024-02-16T13:01:08;96248.03;;;15.04;41.11
12624;BME280;6377;42.836;23.998;2024-02-16T13:03:36;96232.63;;;14.78;41.69
12624;BME280;6377;42.836;23.998;2024-02-16T13:06:06;96175.97;;;14.27;41.36
12624;BME280;6377;42.836;23.998;2024-02-16T13:08:33;96194.13;;;14.38;41.62
12624;BME280;6377;42.836;23.998;2024-02-16T13:11:02;96215.75;;;14.14;42.31
12624;BME280;6377;42.836;23.998;2024-02-16T13:13:29;96165.31;;;13.56;43.01
12624;BME280;6377;42.836;23.998;2024-02-16T13:15:57;96250.03;;;14.09;43.38
12624;BME280;6377;42.836;23.998;2024-02-16T13:18:25;96227.44;;;13.69;43.99
12624;BME280;6377;42.836;23.998;2024-02-16T13:20:52;96198.00;;;13.41;44.73
12624;BME280;6377;42.836;23.998;2024-02-16T13:23:20;96235.31;;;13.63;45.16
12624;BME280;6377;42.836;23.998;2024-02-16T13:25:47;96204.88;;;13.36;45.04
12624;BME280;6377;42.836;23.998;2024-02-16T13:28:14;96195.69;;;13.09;45.62
12624;BME280;6377;42.836;23.998;2024-02-16T13:30:42;96245.28;;;13.31;45.07
12624;BME280;6377;42.836;23.998;2024-02-16T13:33:09;96232.28;;;13.36;45.36
12624;BME280;6377;42.836;23.998;2024-02-16T13:35:36;96192.31;;;13.15;44.95
12624;BME280;6377;42.836;23.998;2024-02-16T13:38:04;96218.34;;;13.20;45.16
12624;BME280;6377;42.836;23.998;2024-02-16T13:40:32;96237.09;;;13.18;46.19
12624;BME280;6377;42.836;23.998;2024-02-16T13:43:01;96173.81;;;12.70;45.68
12624;BME280;6377;42.836;23.998;2024-02-16T13:45:47;96204.22;;;12.82;45.51
12624;BME280;6377;42.836;23.998;2024-02-16T13:48:15;96226.94;;;12.84;45.99
12624;BME280;6377;42.836;23.998;2024-02-16T13:50:44;96243.25;;;12.96;46.09
12624;BME280;6377;42.836;23.998;2024-02-16T13:53:11;96232.59;;;12.81;46.62
12624;BME280;6377;42.836;23.998;2024-02-16T13:55:41;96240.31;;;12.91;46.45
12624;BME280;6377;42.836;23.998;2024-02-16T13:58:08;96237.59;;;12.99;46.56
12624;BME280;6377;42.836;23.998;2024-02-16T14:00:35;96239.31;;;12.92;46.13
12624;BME280;6377;42.836;23.998;2024-02-16T14:03:03;96239.97;;;12.94;46.40
12624;BME280;6377;42.836;23.998;2024-02-16T14:05:31;96251.78;;;12.91;46.39
12624;BME280;6377;42.836;23.998;2024-02-16T14:07:58;96233.06;;;12.85;46.37
12624;BME280;6377;42.836;23.998;2024-02-16T14:10:25;96172.25;;;12.38;46.10
12624;BME280;6377;42.836;23.998;2024-02-16T14:12:54;96232.72;;;12.65;46.35
12624;BME280;6377;42.836;23.998;2024-02-16T14:15:21;96218.28;;;12.45;46.79
12624;BME280;6377;42.836;23.998;2024-02-16T14:17:48;96225.81;;;12.33;47.27
12624;BME280;6377;42.836;23.998;2024-02-16T14:20:15;96179.63;;;11.97;47.27
12624;BME280;6377;42.836;23.998;2024-02-16T14:22:42;96140.78;;;11.43;47.83
12624;BME280;6377;42.836;23.998;2024-02-16T14:25:11;96221.22;;;11.97;47.90
12624;BME280;6377;42.836;23.998;2024-02-16T14:27:38;96238.13;;;11.96;48.10
12624;BME280;6377;42.836;23.998;2024-02-16T14:30:09;96234.63;;;11.95;48.84
12624;BME280;6377;42.836;23.998;2024-02-16T14:32:36;96235.63;;;12.02;48.69
12624;BME280;6377;42.836;23.998;2024-02-16T14:35:04;96078.78;;;10.82;48.31
12624;BME280;6377;42.836;23.998;2024-02-16T14:45:19;96190.03;;;11.68;48.92
12624;BME280;6377;42.836;23.998;2024-02-16T14:47:46;96101.75;;;10.90;48.75
12624;BME280;6377;42.836;23.998;2024-02-16T14:50:14;96038.34;;;10.65;49.24
12624;BME280;6377;42.836;23.998;2024-02-16T14:52:42;96262.63;;;11.98;49.41
12624;BME280;6377;42.836;23.998;2024-02-16T14:55:09;96275.41;;;11.94;49.14
12624;BME280;6377;42.836;23.998;2024-02-16T14:57:37;96055.84;;;10.66;49.08
12624;BME280;6377;42.836;23.998;2024-02-16T15:00:06;96093.34;;;10.78;49.44
12624;BME280;6377;42.836;23.998;2024-02-16T15:15:36;96264.91;;;11.70;49.70
12624;BME280;6377;42.836;23.998;2024-02-16T15:18:04;96095.41;;;10.44;49.96
12624;BME280;6377;42.836;23.998;2024-02-16T15:20:31;96149.56;;;10.72;50.46
12624;BME280;6377;42.836;23.998;2024-02-16T15:22:58;96114.88;;;10.43;50.97
12624;BME280;6377;42.836;23.998;2024-02-16T15:25:25;96270.72;;;11.49;51.41
12624;BME280;6377;42.836;23.998;2024-02-16T15:27:52;96045.66;;;10.07;50.96
12624;BME280;6377;42.836;23.998;2024-02-16T15:30:21;96135.69;;;10.54;51.15
12624;BME280;6377;42.836;23.998;2024-02-16T15:32:49;96255.56;;;11.03;51.67
12624;BME280;6377;42.836;23.998;2024-02-16T15:35:16;96281.84;;;11.37;51.90
12624;BME280;6377;42.836;23.998;2024-02-16T15:37:44;96291.59;;;11.36;52.00
12624;BME280;6377;42.836;23.998;2024-02-16T15:40:11;96252.94;;;11.03;51.91
12624;BME280;6377;42.836;23.998;2024-02-16T15:42:39;96300.22;;;11.22;51.84
12624;BME280;6377;42.836;23.998;2024-02-16T15:45:08;96290.97;;;11.18;51.40
12624;BME280;6377;42.836;23.998;2024-02-16T15:47:36;96301.06;;;11.14;52.04
12624;BME280;6377;42.836;23.998;2024-02-16T15:50:07;96302.72;;;11.07;52.78
12624;BME280;6377;42.836;23.998;2024-02-16T15:52:34;96299.88;;;11.01;53.18
12624;BME280;6377;42.836;23.998;2024-02-16T15:55:01;96316.09;;;10.90;52.97
12624;BME280;6377;42.836;23.998;2024-02-16T15:57:28;96312.78;;;10.63;52.87
12624;BME280;6377;42.836;23.998;2024-02-16T15:59:55;96317.06;;;10.56;53.43
12624;BME280;6377;42.836;23.998;2024-02-16T16:02:23;96327.47;;;10.50;54.11
12624;BME280;6377;42.836;23.998;2024-02-16T16:04:50;96328.63;;;10.47;55.49
12624;BME280;6377;42.836;23.998;2024-02-16T16:07:19;96329.91;;;10.43;56.57
12624;BME280;6377;42.836;23.998;2024-02-16T16:09:46;96335.53;;;10.40;57.48
12624;BME280;6377;42.836;23.998;2024-02-16T16:12:13;96331.69;;;10.27;57.19
12624;BME280;6377;42.836;23.998;2024-02-16T16:14:40;96337.44;;;10.22;59.11
12624;BME280;6377;42.836;23.998;2024-02-16T16:17:07;96345.97;;;10.08;62.06
12624;BME280;6377;42.836;23.998;2024-02-16T16:19:34;96344.84;;;9.85;63.29
12624;BME280;6377;42.836;23.998;2024-02-16T16:22:02;96341.69;;;9.81;64.09
12624;BME280;6377;42.836;23.998;2024-02-16T16:24:31;96349.72;;;9.72;65.04
12624;BME280;6377;42.836;23.998;2024-02-16T16:26:58;96348.84;;;9.63;66.17
12624;BME280;6377;42.836;23.998;2024-02-16T16:29:25;96345.28;;;9.46;67.66
12624;BME280;6377;42.836;23.998;2024-02-16T16:31:52;96266.19;;;8.68;69.18
12624;BME280;6377;42.836;23.998;2024-02-16T16:34:21;96344.13;;;9.23;69.28
12624;BME280;6377;42.836;23.998;2024-02-16T16:36:48;96349.19;;;9.17;69.54
12624;BME280;6377;42.836;23.998;2024-02-16T16:39:15;96301.06;;;8.79;70.55
12624;BME280;6377;42.836;23.998;2024-02-16T16:41:44;96356.88;;;9.10;71.87
12624;BME280;6377;42.836;23.998;2024-02-16T16:44:11;96362.66;;;8.88;73.25
12624;BME280;6377;42.836;23.998;2024-02-16T16:46:38;96336.41;;;8.33;77.83
12624;BME280;6377;42.836;23.998;2024-02-16T16:49:08;96383.69;;;8.35;79.80
12624;BME280;6377;42.836;23.998;2024-02-16T16:51:35;96369.41;;;8.28;81.22
12624;BME280;6377;42.836;23.998;2024-02-16T16:54:02;96368.91;;;8.15;81.62
12624;BME280;6377;42.836;23.998;2024-02-16T16:56:30;96376.22;;;7.94;83.44
12624;BME280;6377;42.836;23.998;2024-02-16T16:59:01;96383.25;;;7.66;86.76
12624;BME280;6377;42.836;23.998;2024-02-16T17:01:28;96357.44;;;7.32;87.97
12624;BME280;6377;42.836;23.998;2024-02-16T17:03:56;96401.72;;;7.47;89.86
12624;BME280;6377;42.836;23.998;2024-02-16T17:06:23;96386.38;;;7.23;91.93
12624;BME280;6377;42.836;23.998;2024-02-16T17:08:51;96385.53;;;7.22;92.17
12624;BME280;6377;42.836;23.998;2024-02-16T17:11:18;96389.16;;;7.02;92.00
12624;BME280;6377;42.836;23.998;2024-02-16T17:13:48;96360.09;;;6.85;95.19
12624;BME280;6377;42.836;23.998;2024-02-16T17:16:16;96354.56;;;6.88;94.67
12624;BME280;6377;42.836;23.998;2024-02-16T17:18:43;96401.63;;;7.10;94.63
12624;BME280;6377;42.836;23.998;2024-02-16T17:21:10;96403.28;;;7.11;95.04
12624;BME280;6377;42.836;23.998;2024-02-16T17:23:38;96340.31;;;6.71;95.87
12624;BME280;6377;42.836;23.998;2024-02-16T17:26:09;96387.78;;;6.89;97.15
12624;BME280;6377;42.836;23.998;2024-02-16T17:28:36;96405.34;;;6.78;97.98
12624;BME280;6377;42.836;23.998;2024-02-16T17:31:03;96344.94;;;6.19;99.55
12624;BME280;6377;42.836;23.998;2024-02-16T17:33:32;96365.41;;;6.06;100.00
12624;BME280;6377;42.836;23.998;2024-02-16T17:35:59;96239.81;;;5.32;100.00
12624;BME280;6377;42.836;23.998;2024-02-16T17:38:26;96257.75;;;5.66;100.00
12624;BME280;6377;42.836;23.998;2024-02-16T17:40:53;96268.69;;;5.72;99.66
12624;BME280;6377;42.836;23.998;2024-02-16T17:43:21;96341.88;;;6.05;100.00
12624;BME280;6377;42.836;23.998;2024-02-16T17:45:48;96413.59;;;6.55;100.00
12624;BME280;6377;42.836;23.998;2024-02-16T17:48:15;96415.44;;;6.64;100.00
12624;BME280;6377;42.836;23.998;2024-02-16T17:50:43;96280.25;;;5.29;100.00
12624;BME280;6377;42.836;23.998;2024-02-16T17:53:10;96289.38;;;5.25;100.00
12624;BME280;6377;42.836;23.998;2024-02-16T17:55:43;96437.91;;;6.28;100.00
12624;BME280;6377;42.836;23.998;2024-02-16T17:58:11;96355.38;;;5.91;100.00
12624;BME280;6377;42.836;23.998;2024-02-16T18:00:38;96380.31;;;6.06;100.00
12624;BME280;6377;42.836;23.998;2024-02-16T18:03:05;96261.41;;;5.15;100.00
12624;BME280;6377;42.836;23.998;2024-02-16T18:05:32;96346.22;;;5.55;100.00
12624;BME280;6377;42.836;23.998;2024-02-16T18:08:01;96434.50;;;6.07;100.00
12624;BME280;6377;42.836;23.998;2024-02-16T18:10:28;96245.59;;;4.95;100.00
12624;BME280;6377;42.836;23.998;2024-02-16T18:12:55;96446.31;;;6.22;100.00
12624;BME280;6377;42.836;23.998;2024-02-16T18:15:23;96444.97;;;6.28;100.00
12624;BME280;6377;42.836;23.998;2024-02-16T18:17:50;96398.66;;;5.96;100.00
12624;BME280;6377;42.836;23.998;2024-02-16T18:20:17;96448.69;;;6.25;100.00
12624;BME280;6377;42.836;23.998;2024-02-16T18:22:44;96312.63;;;5.39;100.00
12624;BME280;6377;42.836;23.998;2024-02-16T18:25:13;96449.94;;;6.00;100.00
12624;BME280;6377;42.836;23.998;2024-02-16T18:27:40;96454.94;;;6.03;100.00
12624;BME280;6377;42.836;23.998;2024-02-16T18:30:08;96423.28;;;5.84;100.00
12624;BME280;6377;42.836;23.998;2024-02-16T18:32:35;96457.81;;;6.00;100.00
12624;BME280;6377;42.836;23.998;2024-02-16T18:35:03;96452.84;;;5.97;100.00
12624;BME280;6377;42.836;23.998;2024-02-16T18:37:30;96440.88;;;5.63;100.00
12624;BME280;6377;42.836;23.998;2024-02-16T18:39:57;96457.66;;;5.72;100.00
12624;BME280;6377;42.836;23.998;2024-02-16T18:42:26;96455.41;;;5.67;100.00
12624;BME280;6377;42.836;23.998;2024-02-16T18:44:53;96459.63;;;5.58;100.00
12624;BME280;6377;42.836;23.998;2024-02-16T18:47:20;96462.25;;;5.58;100.00
12624;BME280;6377;42.836;23.998;2024-02-16T18:49:48;96465.63;;;5.49;100.00
12624;BME280;6377;42.836;23.998;2024-02-16T18:52:15;96465.00;;;5.36;100.00
12624;BME280;6377;42.836;23.998;2024-02-16T18:54:42;96467.50;;;5.38;100.00
12624;BME280;6377;42.836;23.998;2024-02-16T18:57:09;96437.53;;;4.99;100.00
12624;BME280;6377;42.836;23.998;2024-02-16T18:59:38;96430.88;;;4.95;100.00
12624;BME280;6377;42.836;23.998;2024-02-16T19:02:05;96459.09;;;5.23;100.00
12624;BME280;6377;42.836;23.998;2024-02-16T19:04:32;96466.28;;;5.21;100.00
12624;BME280;6377;42.836;23.998;2024-02-16T19:07:02;96450.34;;;5.13;100.00
12624;BME280;6377;42.836;23.998;2024-02-16T19:09:30;96426.78;;;5.02;100.00
12624;BME280;6377;42.836;23.998;2024-02-16T19:11:57;96462.22;;;5.17;100.00
12624;BME280;6377;42.836;23.998;2024-02-16T19:14:24;96444.63;;;5.08;100.00
12624;BME280;6377;42.836;23.998;2024-02-16T19:16:53;96471.13;;;5.26;100.00
12624;BME280;6377;42.836;23.998;2024-02-16T19:21:56;96473.84;;;5.03;100.00
12624;BME280;6377;42.836;23.998;2024-02-16T19:24:23;96470.94;;;4.86;100.00
12624;BME280;6377;42.836;23.998;2024-02-16T19:26:50;96437.19;;;4.49;100.00
12624;BME280;6377;42.836;23.998;2024-02-16T19:29:17;96467.31;;;4.55;100.00
12624;BME280;6377;42.836;23.998;2024-02-16T19:31:45;96453.59;;;4.20;100.00
12624;BME280;6377;42.836;23.998;2024-02-16T19:34:14;96472.25;;;4.15;100.00
12624;BME280;6377;42.836;23.998;2024-02-16T19:36:41;96423.22;;;3.73;100.00
12624;BME280;6377;42.836;23.998;2024-02-16T19:39:08;96453.81;;;3.94;100.00
12624;BME280;6377;42.836;23.998;2024-02-16T19:41:44;96475.09;;;4.12;100.00
12624;BME280;6377;42.836;23.998;2024-02-16T19:44:12;96476.78;;;4.24;100.00
12624;BME280;6377;42.836;23.998;2024-02-16T19:46:41;96242.78;;;2.73;100.00
12624;BME280;6377;42.836;23.998;2024-02-16T19:49:09;96247.78;;;2.98;100.00
12624;BME280;6377;42.836;23.998;2024-02-16T19:51:37;96464.97;;;4.41;100.00
12624;BME280;6377;42.836;23.998;2024-02-16T19:54:04;96484.09;;;4.52;100.00
12624;BME280;6377;42.836;23.998;2024-02-16T19:56:31;96476.28;;;4.41;100.00
12624;BME280;6377;42.836;23.998;2024-02-16T19:58:59;96480.31;;;4.57;100.00
12624;BME280;6377;42.836;23.998;2024-02-16T20:01:26;96467.44;;;4.53;100.00
12624;BME280;6377;42.836;23.998;2024-02-16T20:03:53;96310.75;;;3.62;100.00
12624;BME280;6377;42.836;23.998;2024-02-16T20:06:20;96455.22;;;4.43;100.00
12624;BME280;6377;42.836;23.998;2024-02-16T20:08:50;96481.22;;;4.78;100.00
12624;BME280;6377;42.836;23.998;2024-02-16T20:11:17;96481.47;;;4.75;100.00
12624;BME280;6377;42.836;23.998;2024-02-16T20:13:44;96484.34;;;4.61;100.00
12624;BME280;6377;42.836;23.998;2024-02-16T20:16:15;96478.97;;;4.62;100.00
12624;BME280;6377;42.836;23.998;2024-02-16T20:18:42;96479.69;;;4.64;100.00
12624;BME280;6377;42.836;23.998;2024-02-16T20:21:09;96484.13;;;4.64;100.00
12624;BME280;6377;42.836;23.998;2024-02-16T20:23:37;96483.59;;;4.70;100.00
12624;BME280;6377;42.836;23.998;2024-02-16T20:26:06;96485.88;;;4.74;100.00
12624;BME280;6377;42.836;23.998;2024-02-16T20:28:33;96471.16;;;4.29;100.00
12624;BME280;6377;42.836;23.998;2024-02-16T20:31:00;96491.28;;;4.39;100.00
12624;BME280;6377;42.836;23.998;2024-02-16T20:33:30;96498.53;;;4.47;100.00
12624;BME280;6377;42.836;23.998;2024-02-16T20:35:57;96400.28;;;3.76;100.00
12624;BME280;6377;42.836;23.998;2024-02-16T20:38:24;96481.66;;;4.18;100.00
12624;BME280;6377;42.836;23.998;2024-02-16T20:40:51;96498.41;;;4.26;100.00
12624;BME280;6377;42.836;23.998;2024-02-16T20:43:20;96503.06;;;4.34;100.00
12624;BME280;6377;42.836;23.998;2024-02-16T20:45:47;96495.69;;;4.39;100.00
12624;BME280;6377;42.836;23.998;2024-02-16T20:48:14;96504.38;;;4.39;100.00
12624;BME280;6377;42.836;23.998;2024-02-16T20:50:42;96494.84;;;4.38;100.00
12624;BME280;6377;42.836;23.998;2024-02-16T20:53:09;96503.91;;;4.34;100.00
12624;BME280;6377;42.836;23.998;2024-02-16T20:55:36;96502.47;;;4.30;100.00
12624;BME280;6377;42.836;23.998;2024-02-16T20:58:03;96504.59;;;4.14;100.00
12624;BME280;6377;42.836;23.998;2024-02-16T21:00:32;96504.97;;;4.10;100.00
12624;BME280;6377;42.836;23.998;2024-02-16T21:02:59;96495.44;;;4.09;100.00
12624;BME280;6377;42.836;23.998;2024-02-16T21:05:26;96506.06;;;4.18;100.00
12624;BME280;6377;42.836;23.998;2024-02-16T21:07:54;96507.59;;;4.21;100.00
12624;BME280;6377;42.836;23.998;2024-02-16T21:10:22;96509.59;;;4.17;100.00
12624;BME280;6377;42.836;23.998;2024-02-16T21:12:49;96491.06;;;3.87;100.00
12624;BME280;6377;42.836;23.998;2024-02-16T21:15:17;96508.44;;;3.99;100.00
12624;BME280;6377;42.836;23.998;2024-02-16T21:17:45;96502.34;;;3.87;100.00
12624;BME280;6377;42.836;23.998;2024-02-16T21:20:12;96505.22;;;3.95;100.00
12624;BME280;6377;42.836;23.998;2024-02-16T21:22:40;96513.91;;;3.96;100.00
12624;BME280;6377;42.836;23.998;2024-02-16T21:25:07;96462.81;;;3.57;100.00
12624;BME280;6377;42.836;23.998;2024-02-16T21:27:35;96509.59;;;3.95;100.00
12624;BME280;6377;42.836;23.998;2024-02-16T21:30:02;96525.78;;;3.89;100.00
12624;BME280;6377;42.836;23.998;2024-02-16T21:32:30;96515.44;;;3.87;100.00
12624;BME280;6377;42.836;23.998;2024-02-16T21:34:58;96525.53;;;3.92;100.00
12624;BME280;6377;42.836;23.998;2024-02-16T21:37:25;96517.78;;;3.90;100.00
12624;BME280;6377;42.836;23.998;2024-02-16T21:39:55;96523.63;;;3.94;100.00
12624;BME280;6377;42.836;23.998;2024-02-16T21:42:22;96520.31;;;3.81;100.00
12624;BME280;6377;42.836;23.998;2024-02-16T21:44:50;96466.56;;;3.31;100.00
12624;BME280;6377;42.836;23.998;2024-02-16T21:47:18;96524.22;;;3.86;100.00
12624;BME280;6377;42.836;23.998;2024-02-16T21:49:45;96480.28;;;3.57;100.00
12624;BME280;6377;42.836;23.998;2024-02-16T21:52:14;96478.53;;;3.57;100.00
12624;BME280;6377;42.836;23.998;2024-02-16T21:54:41;96524.31;;;3.74;100.00
12624;BME280;6377;42.836;23.998;2024-02-16T21:57:08;96528.25;;;3.68;100.00
12624;BME280;6377;42.836;23.998;2024-02-16T21:59:35;96540.16;;;3.72;100.00
12624;BME280;6377;42.836;23.998;2024-02-16T22:02:02;96529.06;;;3.69;100.00
12624;BME280;6377;42.836;23.998;2024-02-16T22:04:31;96468.44;;;3.29;100.00
12624;BME280;6377;42.836;23.998;2024-02-16T22:06:58;96524.22;;;3.75;100.00
12624;BME280;6377;42.836;23.998;2024-02-16T22:09:26;96532.41;;;3.82;100.00
12624;BME280;6377;42.836;23.998;2024-02-16T22:11:53;96503.91;;;3.44;100.00
12624;BME280;6377;42.836;23.998;2024-02-16T22:14:21;96528.47;;;3.65;100.00
12624;BME280;6377;42.836;23.998;2024-02-16T22:16:48;96531.53;;;3.59;100.00
12624;BME280;6377;42.836;23.998;2024-02-16T22:19:15;96531.59;;;3.47;100.00
12624;BME280;6377;42.836;23.998;2024-02-16T22:21:42;96470.59;;;3.00;100.00
12624;BME280;6377;42.836;23.998;2024-02-16T22:24:11;96534.34;;;3.45;100.00
12624;BME280;6377;42.836;23.998;2024-02-16T22:26:39;96478.38;;;3.13;100.00
12624;BME280;6377;42.836;23.998;2024-02-16T22:29:06;96518.66;;;3.45;100.00
12624;BME280;6377;42.836;23.998;2024-02-16T22:31:33;96461.13;;;2.99;100.00
12624;BME280;6377;42.836;23.998;2024-02-16T22:34:01;96505.19;;;3.27;100.00
12624;BME280;6377;42.836;23.998;2024-02-16T22:36:28;96564.91;;;3.45;100.00
12624;BME280;6377;42.836;23.998;2024-02-16T22:38:56;96385.84;;;2.46;100.00
12624;BME280;6377;42.836;23.998;2024-02-16T22:41:23;96521.59;;;3.40;100.00
12624;BME280;6377;42.836;23.998;2024-02-16T22:43:52;96533.03;;;3.39;100.00
12624;BME280;6377;42.836;23.998;2024-02-16T22:46:19;96501.47;;;3.19;100.00
12624;BME280;6377;42.836;23.998;2024-02-16T22:48:46;96535.66;;;3.39;100.00
12624;BME280;6377;42.836;23.998;2024-02-16T22:51:14;96332.41;;;2.15;100.00
12624;BME280;6377;42.836;23.998;2024-02-16T22:53:42;96501.84;;;3.25;100.00